createdAt,value
2022-08-11T00:02:34.465Z,98648.78
2022-08-11T00:05:21.227Z,98645.00
2022-08-11T00:10:36.360Z,98652.66
2022-08-11T00:13:07.705Z,98646.41
2022-08-11T00:15:41.442Z,98645.00
2022-08-11T00:18:09.607Z,98638.41
2022-08-11T00:20:40.105Z,98644.88
2022-08-11T00:23:14.662Z,98639.38
2022-08-11T00:25:50.892Z,98630.06
2022-08-11T00:28:27.751Z,98640.16
2022-08-11T00:30:56.800Z,98637.13
2022-08-11T00:33:44.393Z,98639.13
2022-08-11T00:36:15.885Z,98639.81
2022-08-11T00:38:44.657Z,98634.88
2022-08-11T00:41:23.516Z,98642.75
2022-08-11T00:44:15.369Z,98649.53
2022-08-11T00:47:13.081Z,98643.50
2022-08-11T00:49:58.346Z,98646.56
2022-08-11T00:52:48.149Z,98644.16
2022-08-11T00:55:40.122Z,98641.81
2022-08-11T00:58:26.383Z,98639.84
2022-08-11T01:01:14.830Z,98637.69
2022-08-11T01:04:20.258Z,98638.97
2022-08-11T01:06:51.279Z,98637.78
2022-08-11T01:09:24.034Z,98644.47
2022-08-11T01:12:13.948Z,98639.97
2022-08-11T01:14:55.539Z,98645.00
2022-08-11T01:17:31.499Z,98638.41
2022-08-11T01:20:44.917Z,98643.22
2022-08-11T01:23:25.899Z,98647.78
2022-08-11T01:26:26.643Z,98643.66
2022-08-11T01:29:22.433Z,98644.97
2022-08-11T01:32:13.187Z,98640.59
2022-08-11T01:35:17.626Z,98637.06
2022-08-11T01:38:02.924Z,98639.75
2022-08-11T01:40:54.432Z,98641.19
2022-08-11T01:44:17.767Z,98656.38
2022-08-11T01:46:52.755Z,98645.53
2022-08-11T01:50:07.557Z,98639.91
2022-08-11T01:52:35.116Z,98649.91
2022-08-11T01:55:10.674Z,98650.59
2022-08-11T01:57:51.091Z,98650.22
2022-08-11T02:00:25.467Z,98654.19
2022-08-11T02:03:14.583Z,98643.84
2022-08-11T02:06:00.483Z,98647.59
2022-08-11T02:11:37.598Z,98644.78
2022-08-11T02:14:12.754Z,98644.41
2022-08-11T02:17:04.349Z,98640.38
2022-08-11T02:20:37.776Z,98645.47
2022-08-11T02:24:06.155Z,98643.28
2022-08-11T02:26:24.574Z,98641.09
2022-08-11T02:29:04.320Z,98640.72
2022-08-11T02:32:25.554Z,98646.78
2022-08-11T02:35:00.115Z,98640.41
2022-08-11T02:37:45.995Z,98639.19
2022-08-11T02:40:50.634Z,98647.75
2022-08-11T02:43:26.052Z,98632.63
2022-08-11T02:46:20.512Z,98636.19
2022-08-11T02:49:13.038Z,98628.38
2022-08-11T02:51:42.538Z,98626.56
2022-08-11T02:54:38.467Z,98637.16
2022-08-11T02:57:11.251Z,98628.09
2022-08-11T02:59:53.792Z,98633.09
2022-08-11T03:02:32.546Z,98627.09
2022-08-11T03:04:59.227Z,98630.25
2022-08-11T03:07:41.353Z,98630.44
2022-08-11T03:10:25.620Z,98630.25
2022-08-11T03:13:29.438Z,98628.78
2022-08-11T03:16:20.579Z,98637.50
2022-08-11T03:19:14.047Z,98638.34
2022-08-11T03:22:01.677Z,98638.53
2022-08-11T03:24:55.178Z,98644.13
2022-08-11T03:27:40.079Z,98644.56
2022-08-11T03:30:35.158Z,98643.97
2022-08-11T03:33:43.327Z,98639.47
2022-08-11T03:36:15.887Z,98638.84
2022-08-11T03:38:58.242Z,98639.91
2022-08-11T03:42:03.737Z,98639.06
2022-08-11T03:44:47.339Z,98636.56
2022-08-11T03:47:55.361Z,98633.69
2022-08-11T03:50:55.734Z,98638.25
2022-08-11T03:53:48.074Z,98635.53
2022-08-11T03:56:36.406Z,98632.41
2022-08-11T03:59:30.662Z,98631.97
2022-08-11T04:02:27.463Z,98636.94
2022-08-11T04:05:22.008Z,98630.25
2022-08-11T04:08:36.278Z,98640.41
2022-08-11T04:13:01.120Z,98632.94
2022-08-11T04:19:11.295Z,98632.84
2022-08-11T04:22:03.811Z,98640.00
2022-08-11T04:24:50.577Z,98643.28
2022-08-11T04:27:41.765Z,98637.22
2022-08-11T04:30:14.999Z,98634.72
2022-08-11T04:32:56.654Z,98633.16
2022-08-11T04:35:50.168Z,98637.63
2022-08-11T04:38:36.986Z,98632.56
2022-08-11T04:41:33.313Z,98625.81
2022-08-11T04:44:38.713Z,98632.28
2022-08-11T04:48:01.907Z,98634.59
2022-08-11T04:51:18.192Z,98627.91
2022-08-11T04:55:00.918Z,98637.78
2022-08-11T04:58:31.550Z,98647.72
2022-08-11T05:01:44.158Z,98652.19
2022-08-11T05:38:44.429Z,98674.47
2022-08-11T05:41:34.066Z,98685.91
2022-08-11T05:44:22.912Z,98674.13
2022-08-11T05:47:09.248Z,98672.34
2022-08-11T05:49:58.885Z,98666.25
2022-08-11T05:52:49.154Z,98670.78
2022-08-11T05:56:01.940Z,98669.50
2022-08-11T05:58:41.159Z,98664.53
2022-08-11T06:01:10.097Z,98666.69
2022-08-11T06:03:58.584Z,98669.19
2022-08-11T06:06:29.265Z,98667.75
2022-08-11T06:08:57.793Z,98668.72
2022-08-11T06:23:59.606Z,98665.25
2022-08-11T06:26:27.040Z,98659.88
2022-08-11T06:28:59.478Z,98661.84
2022-08-11T06:31:26.585Z,98662.69
2022-08-11T06:34:27.375Z,98669.03
2022-08-11T06:37:04.553Z,98660.69
2022-08-11T06:40:36.040Z,98659.41
2022-08-11T06:43:23.280Z,98666.28
2022-08-11T06:46:04.008Z,98660.66
2022-08-11T06:48:33.495Z,98660.47
2022-08-11T06:51:12.907Z,98667.59
2022-08-11T06:54:03.829Z,98660.66
2022-08-11T06:57:12.512Z,98663.94
2022-08-11T07:00:00.404Z,98659.13
2022-08-11T07:02:33.978Z,98648.19
2022-08-11T07:05:04.587Z,98653.19
2022-08-11T07:08:37.677Z,98646.16
2022-08-11T07:11:46.159Z,98663.38
2022-08-11T07:14:38.859Z,98655.78
2022-08-11T07:17:08.819Z,98661.41
2022-08-11T07:19:56.956Z,98660.28
2022-08-11T07:22:43.319Z,98649.56
2022-08-11T07:25:35.474Z,98654.03
2022-08-11T07:28:25.728Z,98648.53
2022-08-11T07:31:01.389Z,98645.22
2022-08-11T07:34:08.409Z,98648.81
2022-08-11T07:36:29.199Z,98651.75
2022-08-11T07:38:57.504Z,98640.97
2022-08-11T07:41:26.100Z,98652.13
2022-08-11T07:43:55.635Z,98649.53
2022-08-11T07:46:42.364Z,98652.13
2022-08-11T07:49:28.949Z,98653.88
2022-08-11T07:52:15.064Z,98651.63
2022-08-11T07:54:43.964Z,98655.69
2022-08-11T07:57:51.492Z,98650.94
2022-08-11T08:00:41.112Z,98641.31
2022-08-11T08:03:27.872Z,98642.09
2022-08-11T08:06:28.405Z,98645.91
2022-08-11T08:09:20.304Z,98644.03
2022-08-11T08:14:56.675Z,98638.50
2022-08-11T08:17:42.607Z,98640.59
2022-08-11T08:20:13.641Z,98639.41
2022-08-11T08:22:43.910Z,98643.28
2022-08-11T08:25:14.379Z,98633.72
2022-08-11T08:27:43.692Z,98643.59
2022-08-11T08:30:29.631Z,98639.47
2022-08-11T08:32:57.905Z,98630.59
2022-08-11T08:35:27.375Z,98627.69
2022-08-11T08:37:59.919Z,98628.50
2022-08-11T08:40:27.427Z,98632.47
2022-08-11T08:42:58.283Z,98638.25
2022-08-11T08:45:27.406Z,98635.22
2022-08-11T08:48:08.457Z,98632.72
2022-08-11T08:51:03.598Z,98641.47
2022-08-11T08:53:35.331Z,98634.59
2022-08-11T08:56:03.581Z,98630.59
2022-08-11T08:58:31.452Z,98631.66
2022-08-11T09:01:01.019Z,98635.09
2022-08-11T09:04:06.912Z,98634.13
2022-08-11T09:06:18.323Z,98630.13
2022-08-11T09:08:46.192Z,98623.56
2022-08-11T09:11:35.287Z,98620.19
2022-08-11T09:14:06.514Z,98634.47
2022-08-11T09:16:37.101Z,98632.44
2022-08-11T09:19:08.189Z,98620.16
2022-08-11T09:21:39.346Z,98618.91
2022-08-11T09:24:33.768Z,98620.41
2022-08-11T09:27:06.554Z,98619.81
2022-08-11T09:29:34.041Z,98621.50
2022-08-11T09:32:01.346Z,98617.19
2022-08-11T09:34:28.810Z,98604.06
2022-08-11T09:37:28.420Z,98609.72
2022-08-11T09:40:20.578Z,98598.13
2022-08-11T09:43:06.214Z,98608.53
2022-08-11T09:45:39.898Z,98603.09
2022-08-11T09:48:07.740Z,98606.34
2022-08-11T09:50:35.340Z,98600.19
2022-08-11T09:53:36.306Z,98597.81
2022-08-11T09:55:53.590Z,98596.97
2022-08-11T09:58:41.953Z,98591.59
2022-08-11T10:01:27.382Z,98583.16
2022-08-11T10:04:18.999Z,98578.84
2022-08-11T10:07:10.835Z,98573.22
2022-08-11T10:09:59.079Z,98578.06
2022-08-11T10:15:59.716Z,98561.06
2022-08-11T10:18:49.377Z,98564.97
2022-08-11T10:21:30.541Z,98555.22
2022-08-11T10:24:19.318Z,98548.19
2022-08-11T10:26:54.961Z,98542.53
2022-08-11T10:29:44.590Z,98546.41
2022-08-11T10:32:33.216Z,98555.59
2022-08-11T10:35:12.840Z,98553.38
2022-08-11T10:38:08.849Z,98541.28
2022-08-11T10:40:28.826Z,98549.25
2022-08-11T10:43:10.722Z,98546.63
2022-08-11T10:45:57.347Z,98542.59
2022-08-11T10:48:26.198Z,98550.31
2022-08-11T10:51:13.059Z,98555.81
2022-08-11T10:54:12.365Z,98569.50
2022-08-11T10:56:59.444Z,98569.97
2022-08-11T10:59:28.473Z,98572.06
2022-08-11T11:01:56.332Z,98570.50
2022-08-11T11:05:03.376Z,98567.53
2022-08-11T11:07:50.721Z,98564.56
2022-08-11T11:10:21.919Z,98560.44
2022-08-11T11:13:14.455Z,98545.06
2022-08-11T11:16:04.243Z,98551.13
2022-08-11T11:21:30.072Z,98537.56
2022-08-11T11:24:34.271Z,98536.78
2022-08-11T11:27:06.204Z,98536.53
2022-08-11T11:29:57.414Z,98536.94
2022-08-11T11:32:50.122Z,98543.13
2022-08-11T11:35:39.523Z,98552.81
2022-08-11T11:38:26.345Z,98551.19
2022-08-11T11:41:13.383Z,98546.38
2022-08-11T11:43:40.839Z,98534.13
2022-08-11T11:46:09.675Z,98522.44
2022-08-11T11:48:37.437Z,98523.25
2022-08-11T11:51:04.948Z,98520.28
2022-08-11T11:53:32.011Z,98518.72
2022-08-11T11:56:00.004Z,98525.44
2022-08-11T11:58:46.517Z,98529.19
2022-08-11T12:01:20.034Z,98538.25
2022-08-11T12:03:51.297Z,98537.78
2022-08-11T12:06:22.320Z,98538.09
2022-08-11T12:08:52.177Z,98544.66
2022-08-11T12:11:49.835Z,98545.88
2022-08-11T12:16:37.148Z,98562.09
2022-08-11T12:19:13.130Z,98565.81
2022-08-11T12:22:00.837Z,98567.31
2022-08-11T12:24:48.495Z,98573.44
2022-08-11T12:27:25.526Z,98580.69
2022-08-11T12:30:06.531Z,98580.31
2022-08-11T12:32:36.482Z,98585.34
2022-08-11T12:35:04.818Z,98577.72
2022-08-11T12:37:45.008Z,98574.44
2022-08-11T12:40:56.502Z,98564.63
2022-08-11T12:43:46.337Z,98542.47
2022-08-11T12:46:27.940Z,98543.03
2022-08-11T12:49:18.512Z,98541.38
2022-08-11T12:52:11.502Z,98532.38
2022-08-11T12:54:42.194Z,98537.81
2022-08-11T12:57:37.995Z,98542.22
2022-08-11T13:00:25.967Z,98538.94
2022-08-11T13:03:13.748Z,98538.09
2022-08-11T13:05:45.086Z,98530.72
2022-08-11T13:08:15.265Z,98526.28
2022-08-11T13:11:01.368Z,98536.59
2022-08-11T13:13:54.215Z,98529.44
2022-08-11T13:16:17.185Z,98534.75
2022-08-11T13:18:44.768Z,98532.94
2022-08-11T13:21:20.195Z,98528.94
2022-08-11T13:24:01.143Z,98524.06
2022-08-11T13:26:47.467Z,98521.13
2022-08-11T13:29:25.487Z,98514.94
2022-08-11T13:31:54.760Z,98507.06
2022-08-11T13:34:24.122Z,98509.16
2022-08-11T13:36:53.490Z,98500.88
2022-08-11T13:39:24.490Z,98507.34
2022-08-11T13:41:55.235Z,98513.38
2022-08-11T13:44:25.800Z,98500.06
2022-08-11T13:46:58.555Z,98492.91
2022-08-11T13:49:26.318Z,98491.06
2022-08-11T13:51:55.138Z,98489.06
2022-08-11T13:54:24.322Z,98483.44
2022-08-11T13:56:56.188Z,98484.38
2022-08-11T13:59:30.753Z,98480.63
2022-08-11T14:02:28.405Z,98465.94
2022-08-11T14:04:57.467Z,98466.88
2022-08-11T14:07:27.751Z,98475.34
2022-08-11T14:09:59.270Z,98474.25
2022-08-11T14:12:48.687Z,98469.81
2022-08-11T14:17:48.017Z,98468.56
2022-08-11T14:20:38.483Z,98467.81
2022-08-11T14:23:05.655Z,98461.50
2022-08-11T14:26:00.432Z,98457.59
2022-08-11T14:28:30.874Z,98462.56
2022-08-11T14:31:02.841Z,98466.78
2022-08-11T14:34:01.040Z,98467.72
2022-08-11T14:36:20.893Z,98474.03
2022-08-11T14:38:48.092Z,98469.19
2022-08-11T14:41:34.607Z,98465.50
2022-08-11T14:44:20.677Z,98470.28
2022-08-11T14:47:23.919Z,98467.88
2022-08-11T14:49:58.558Z,98465.22
2022-08-11T14:52:39.155Z,98464.38
2022-08-11T14:55:26.134Z,98468.66
2022-08-11T14:57:56.172Z,98463.75
2022-08-11T15:00:24.018Z,98472.91
2022-08-11T15:03:10.162Z,98473.25
2022-08-11T15:05:41.071Z,98478.00
2022-08-11T15:08:09.266Z,98480.50
2022-08-11T15:10:36.773Z,98480.69
2022-08-11T15:13:04.239Z,98481.28
2022-08-11T15:15:50.675Z,98491.72
2022-08-11T15:18:20.276Z,98472.28
2022-08-11T15:21:05.584Z,98484.13
2022-08-11T15:23:50.797Z,98482.25
2022-08-11T15:26:43.047Z,98484.69
2022-08-11T15:29:30.098Z,98477.09
2022-08-11T15:32:15.424Z,98479.91
2022-08-11T15:35:03.777Z,98473.59
2022-08-11T15:37:32.180Z,98465.72
2022-08-11T15:40:31.421Z,98464.69
2022-08-11T15:43:28.439Z,98465.69
2022-08-11T15:46:02.403Z,98469.50
2022-08-11T15:48:35.084Z,98468.22
2022-08-11T15:51:25.181Z,98471.31
2022-08-11T15:53:56.826Z,98469.16
2022-08-11T15:56:27.627Z,98470.50
2022-08-11T15:59:41.595Z,98461.75
2022-08-11T16:02:22.952Z,98476.91
2022-08-11T16:04:50.615Z,98474.75
2022-08-11T16:07:27.337Z,98473.16
2022-08-11T16:10:09.531Z,98468.25
2022-08-11T16:12:40.771Z,98465.31
2022-08-11T16:18:54.739Z,98459.91
2022-08-11T16:21:26.016Z,98456.38
2022-08-11T16:24:03.620Z,98455.81
2022-08-11T16:27:08.484Z,98457.75
2022-08-11T16:29:21.795Z,98460.47
2022-08-11T16:32:11.696Z,98459.66
2022-08-11T16:34:59.442Z,98447.63
2022-08-11T16:37:45.927Z,98452.00
2022-08-11T16:40:13.269Z,98455.56
2022-08-11T16:43:10.587Z,98450.41
2022-08-11T16:45:59.769Z,98456.91
2022-08-11T16:48:36.352Z,98457.75
2022-08-11T16:51:11.108Z,98458.31
2022-08-11T16:53:46.020Z,98456.09
2022-08-11T16:56:36.602Z,98454.22
2022-08-11T16:59:14.939Z,98466.78
2022-08-11T17:01:58.308Z,98461.84
2022-08-11T17:04:47.910Z,98457.47
2022-08-11T17:07:51.378Z,98450.66
2022-08-11T17:10:55.661Z,98452.56
2022-08-11T17:13:31.929Z,98443.28
2022-08-11T17:16:09.355Z,98446.81
2022-08-11T17:18:58.578Z,98444.09
2022-08-11T17:21:34.281Z,98439.19
2022-08-11T17:24:08.987Z,98448.44
2022-08-11T17:26:55.836Z,98438.34
2022-08-11T17:29:53.651Z,98441.09
2022-08-11T17:33:00.564Z,98428.50
2022-08-11T17:35:38.794Z,98443.53
2022-08-11T17:38:07.626Z,98441.09
2022-08-11T17:40:38.906Z,98432.34
2022-08-11T17:43:28.374Z,98434.22
2022-08-11T17:46:15.589Z,98434.19
2022-08-11T17:48:47.916Z,98424.06
2022-08-11T17:51:38.600Z,98433.31
2022-08-11T17:54:26.031Z,98433.03
2022-08-11T17:57:20.302Z,98433.00
2022-08-11T17:59:53.116Z,98434.34
2022-08-11T18:02:43.268Z,98434.59
2022-08-11T18:05:13.614Z,98441.91
2022-08-11T18:08:04.043Z,98443.50
2022-08-11T18:10:51.472Z,98453.00
2022-08-11T18:13:39.040Z,98447.78
2022-08-11T18:30:19.141Z,98456.06
2022-08-11T18:33:44.715Z,98469.09
2022-08-11T18:36:16.679Z,98462.56
2022-08-11T18:39:05.849Z,98463.03
2022-08-11T18:41:55.229Z,98456.75
2022-08-11T18:44:45.959Z,98461.56
2022-08-11T18:47:33.435Z,98469.72
2022-08-11T18:50:33.384Z,98460.41
2022-08-11T18:53:26.754Z,98463.34
2022-08-11T18:56:13.021Z,98464.06
2022-08-11T18:59:02.258Z,98461.47
2022-08-11T19:01:55.623Z,98462.22
2022-08-11T19:04:42.610Z,98469.56
2022-08-11T19:07:31.080Z,98469.31
2022-08-11T19:10:17.712Z,98471.16
2022-08-11T19:13:05.278Z,98463.97
2022-08-11T19:15:51.998Z,98480.16
2022-08-11T19:18:41.728Z,98477.81
2022-08-11T19:21:29.949Z,98476.03
2022-08-11T19:24:18.652Z,98475.34
2022-08-11T19:27:04.688Z,98481.13
2022-08-11T19:30:11.070Z,98479.34
2022-08-11T19:32:58.500Z,98471.53
2022-08-11T19:35:45.534Z,98471.94
2022-08-11T19:38:31.989Z,98466.38
2022-08-11T19:41:51.804Z,98467.38
2022-08-11T19:44:25.582Z,98467.84
2022-08-11T19:47:11.620Z,98465.53
2022-08-11T19:50:00.704Z,98477.13
2022-08-11T19:52:47.408Z,98465.63
2022-08-11T19:55:34.106Z,98464.50
2022-08-11T19:58:21.182Z,98469.31
2022-08-11T20:01:08.057Z,98470.16
2022-08-11T20:03:54.231Z,98466.38
2022-08-11T20:06:40.772Z,98470.47
2022-08-11T20:10:01.256Z,98469.41
2022-08-11T20:12:36.165Z,98469.97
2022-08-11T20:15:22.795Z,98461.59
2022-08-11T20:20:54.056Z,98468.16
2022-08-11T20:23:40.818Z,98461.44
2022-08-11T20:26:31.298Z,98467.19
2022-08-11T20:29:18.856Z,98466.38
2022-08-11T20:32:06.670Z,98457.13
2022-08-11T20:34:56.870Z,98456.34
2022-08-11T20:37:50.180Z,98446.78
2022-08-11T20:40:39.175Z,98449.16
2022-08-11T20:44:07.614Z,98452.16
2022-08-11T20:46:37.540Z,98454.75
2022-08-11T20:49:24.466Z,98457.97
2022-08-11T20:52:11.131Z,98461.19
2022-08-11T20:54:59.798Z,98459.28
2022-08-11T20:57:59.925Z,98466.38
2022-08-11T21:00:50.871Z,98463.34
2022-08-11T21:03:52.268Z,98465.72
2022-08-11T21:06:47.240Z,98466.44
2022-08-11T21:09:58.791Z,98473.75
2022-08-11T21:12:41.552Z,98466.59
2022-08-11T21:15:46.944Z,98476.63
2022-08-11T21:18:36.404Z,98471.47
2022-08-11T21:21:25.929Z,98473.56
2022-08-11T21:24:12.558Z,98479.25
2022-08-11T21:27:03.844Z,98468.31
2022-08-11T21:29:52.912Z,98466.09
2022-08-11T21:32:40.270Z,98468.47
2022-08-11T21:35:27.955Z,98469.78
2022-08-11T21:38:15.121Z,98476.84
2022-08-11T21:41:01.301Z,98470.59
2022-08-11T21:43:49.889Z,98468.13
2022-08-11T21:46:39.488Z,98479.44
2022-08-11T21:49:27.357Z,98482.06
2022-08-11T21:52:12.524Z,98473.28
2022-08-11T21:54:59.029Z,98482.81
2022-08-11T21:57:48.141Z,98473.75
2022-08-11T22:00:35.273Z,98478.28
2022-08-11T22:03:21.314Z,98477.94
2022-08-11T22:06:08.707Z,98472.41
2022-08-11T22:08:54.410Z,98479.00
2022-08-11T22:11:39.837Z,98482.19
2022-08-11T22:14:25.283Z,98475.59
2022-08-11T22:17:15.545Z,98476.34
2022-08-11T22:22:07.397Z,98465.88
2022-08-11T22:24:57.017Z,98474.56
2022-08-11T22:27:44.077Z,98471.50
2022-08-11T22:30:42.521Z,98467.66
2022-08-11T22:34:02.314Z,98470.00
2022-08-11T22:36:54.095Z,98472.84
2022-08-11T22:39:59.840Z,98467.66
2022-08-11T22:42:57.940Z,98468.63
2022-08-11T22:45:52.240Z,98467.91
2022-08-11T22:48:40.224Z,98462.16
2022-08-11T22:51:35.211Z,98461.22
2022-08-11T22:54:37.794Z,98468.75
2022-08-11T22:57:37.630Z,98460.88
2022-08-11T23:00:37.078Z,98460.53
2022-08-11T23:03:37.019Z,98463.94
2022-08-11T23:06:28.712Z,98463.09
2022-08-11T23:09:39.401Z,98470.38
2022-08-11T23:12:25.782Z,98467.31
2022-08-11T23:15:27.328Z,98457.59
2022-08-11T23:18:16.188Z,98442.41
2022-08-11T23:21:04.816Z,98452.41
2022-08-11T23:24:00.142Z,98447.81
2022-08-11T23:26:54.741Z,98456.16
2022-08-11T23:29:40.307Z,98449.81
2022-08-11T23:32:31.353Z,98459.59
2022-08-11T23:38:30.855Z,98439.06
2022-08-11T23:41:16.787Z,98431.53
2022-08-11T23:44:04.044Z,98434.34
2022-08-11T23:47:12.266Z,98421.19
2022-08-11T23:50:01.452Z,98429.16
2022-08-11T23:52:52.119Z,98426.31
2022-08-11T23:55:38.889Z,98429.47
2022-08-11T23:58:27.770Z,98421.25
